| time (UTC) | temp C | wind direction | speed KPH | gust KPH | rain 1hr cm | rain 24hr cm | rain mn cm | humidity % | barometer mb |
| 20260503023043 | 14 | 214 | 6.4 | 14.5 | 0.00 | 0.00 | 0.00 | 49 | 1010.0 |
| 20260503021552 | 13 | 221 | 9.7 | 17.7 | 0.00 | 0.00 | 0.00 | 49 | 1010.2 |
| 20260503020125 | 14 | 236 | 4.8 | 20.9 | 0.00 | 0.00 | 0.00 | 47 | 1010.2 |
| 20260503014543 | 14 | 241 | 17.7 | 32.2 | 0.00 | 0.00 | 0.00 | 49 | 1010.5 |
| 20260503013003 | 13 | 237 | 3.2 | 8.0 | 0.00 | 0.00 | 0.00 | 52 | 1010.1 |
| 20260503011655 | 14 | 237 | 1.6 | 4.8 | 0.00 | 0.00 | 0.00 | 46 | 1010.1 |
| 20260503010044 | 15 | 237 | 4.8 | 12.9 | 0.00 | 0.00 | 0.00 | 43 | 1010.0 |
| 20260503004616 | 15 | 250 | 6.4 | 12.9 | 0.00 | 0.00 | 0.00 | 42 | 1010.1 |
| 20260503003120 | 15 | 229 | 9.7 | 22.5 | 0.00 | 0.00 | 0.00 | 42 | 1010.3 |
| 20260503001502 | 15 | 242 | 12.9 | 22.5 | 0.00 | 0.00 | 0.00 | 41 | 1010.5 |
| 20260503000113 | 15 | 237 | 9.7 | 14.5 | 0.00 | 0.00 | 0.00 | 40 | 1010.5 |
| 20260502234514 | 15 | 235 | 4.8 | 11.3 | 0.00 | 0.00 | 0.00 | 42 | 1010.7 |
| 20260502233051 | 15 | 235 | 4.8 | 12.9 | 0.00 | 0.00 | 0.00 | 39 | 1010.9 |
| 20260502231539 | 15 | 222 | 4.8 | 12.9 | 0.00 | 0.00 | 0.00 | 38 | 1011.0 |
| 20260502230101 | 15 | 240 | 4.8 | 12.9 | 0.00 | 0.00 | 0.00 | 38 | 1011.1 |
| 20260502224553 | 15 | 231 | 11.3 | 20.9 | 0.00 | 0.00 | 0.00 | 37 | 1011.3 |
| 20260502223011 | 16 | 252 | 11.3 | 19.3 | 0.00 | 0.00 | 0.00 | 37 | 1011.5 |
| 20260502221501 | 15 | 225 | 12.9 | 24.1 | 0.00 | 0.00 | 0.00 | 36 | 1011.8 |
| 20260502220054 | 16 | 254 | 12.9 | 22.5 | 0.00 | 0.00 | 0.00 | 36 | 1011.9 |
| 20260502214605 | 16 | 254 | 14.5 | 27.4 | 0.00 | 0.00 | 0.00 | 35 | 1012.2 |
| 20260502213035 | 16 | 219 | 14.5 | 30.6 | 0.00 | 0.00 | 0.00 | 37 | 1012.3 |
| 20260502211530 | 16 | 231 | 19.3 | 25.7 | 0.00 | 0.00 | 0.00 | 35 | 1012.6 |
| 20260502210026 | 15 | 242 | 8.0 | 25.7 | 0.00 | 0.00 | 0.00 | 36 | 1012.9 |
| 20260502204608 | 15 | 250 | 14.5 | 25.7 | 0.00 | 0.00 | 0.00 | 36 | 1013.1 |
| 20260502203127 | 15 | 272 | 14.5 | 25.7 | 0.00 | 0.00 | 0.00 | 36 | 1013.1 |
| 20260502201621 | 15 | 257 | 16.1 | 25.7 | 0.00 | 0.00 | 0.00 | 36 | 1013.6 |
| 20260502200146 | 15 | 200 | 6.4 | 20.9 | 0.00 | 0.00 | 0.00 | 39 | 1013.7 |
| 20260502194600 | 15 | 245 | 19.3 | 30.6 | 0.00 | 0.00 | 0.00 | 38 | 1014.1 |
| 20260502193021 | 14 | 234 | 12.9 | 22.5 | 0.00 | 0.00 | 0.00 | 39 | 1014.4 |
| 20260502191534 | 15 | 261 | 14.5 | 22.5 | 0.00 | 0.00 | 0.00 | 41 | 1014.5 |
| 20260502190033 | 14 | 255 | 16.1 | 29.0 | 0.00 | 0.00 | 0.00 | 36 | 1014.8 |
| 20260502184634 | 13 | 267 | 14.5 | 33.8 | 0.00 | 0.00 | 0.00 | 36 | 1015.0 |
| 20260502183037 | 13 | 253 | 11.3 | 24.1 | 0.00 | 0.00 | 0.00 | 35 | 1015.2 |
| 20260502181529 | 13 | 209 | 16.1 | 24.1 | 0.00 | 0.00 | 0.00 | 38 | 1015.5 |
| 20260502163032 | 12 | 259 | 12.9 | 24.1 | 0.00 | 0.00 | 0.00 | 38 | 1016.9 |
| 20260502161525 | 12 | 250 | 16.1 | 27.4 | 0.00 | 0.00 | 0.00 | 42 | 1017.0 |
| 20260502151539 | 10 | 259 | 11.3 | 22.5 | 0.00 | 0.00 | 0.00 | 44 | 1017.5 |
| 20260502140108 | 7 | 263 | 8.0 | 14.5 | 0.00 | 0.00 | 0.00 | 61 | 1017.8 |
| 20260502123056 | 0 | 317 | 0.0 | 0.0 | 0.00 | 0.00 | 0.00 | 94 | 1017.9 |
| 20260502121512 | 0 | 317 | 0.0 | 3.2 | 0.00 | 0.00 | 0.00 | 94 | 1017.8 |
| 20260502120108 | -1 | 317 | 0.0 | 0.0 | 0.00 | 0.00 | 0.00 | 94 | 1017.8 |
| 20260502114558 | -2 | 317 | 0.0 | 3.2 | 0.00 | 0.00 | 0.00 | 93 | 1017.8 |
| 20260502113028 | -2 | 317 | 1.6 | 4.8 | 0.00 | 0.00 | 0.00 | 93 | 1017.7 |
| 20260502111615 | -2 | 318 | 0.0 | 0.0 | 0.00 | 0.00 | 0.00 | 93 | 1017.7 |
| 20260502104502 | -2 | 318 | 0.0 | 0.0 | 0.00 | 0.00 | 0.00 | 92 | 1017.7 |
| 20260502103053 | -1 | 318 | 0.0 | 0.0 | 0.00 | 0.00 | 0.00 | 92 | 1017.7 |
| 20260502101602 | -1 | 318 | 0.0 | 0.0 | 0.00 | 0.00 | 0.00 | 92 | 1017.6 |
| 20260502090148 | -1 | 318 | 0.0 | 0.0 | 0.00 | 0.00 | 0.00 | 91 | 1017.8 |
| 20260502070038 | 0 | 317 | 0.0 | 0.0 | 0.00 | 0.00 | 0.00 | 85 | 1017.8 |
| 20260502064541 | 1 | 317 | 0.0 | 0.0 | 0.00 | 0.00 | 0.00 | 84 | 1017.9 |
| 20260502063022 | 1 | 317 | 0.0 | 0.0 | 0.00 | 0.00 | 0.00 | 82 | 1018.1 |
| 20260502061530 | 1 | 317 | 0.0 | 0.0 | 0.00 | 0.00 | 0.00 | 82 | 1018.2 |
| 20260502060104 | 2 | 317 | 0.0 | 0.0 | 0.00 | 0.00 | 0.00 | 82 | 1018.2 |
| 20260502054631 | 2 | 317 | 0.0 | 0.0 | 0.00 | 0.00 | 0.00 | 82 | 1018.0 |
| 20260502053035 | 2 | 317 | 0.0 | 0.0 | 0.00 | 0.00 | 0.00 | 81 | 1017.9 |
| 20260502051608 | 2 | 317 | 0.0 | 0.0 | 0.00 | 0.00 | 0.00 | 81 | 1018.0 |
| 20260502050027 | 2 | 317 | 0.0 | 0.0 | 0.00 | 0.00 | 0.00 | 80 | 1018.0 |
| 20260502044515 | 2 | 317 | 0.0 | 0.0 | 0.00 | 0.00 | 0.00 | 79 | 1017.9 |
| 20260502043010 | 2 | 317 | 0.0 | 0.0 | 0.00 | 0.00 | 0.00 | 78 | 1017.9 |
| 20260502041606 | 2 | 317 | 0.0 | 0.0 | 0.00 | 0.00 | 0.00 | 75 | 1017.9 |
| 20260502040048 | 2 | 317 | 0.0 | 0.0 | 0.00 | 0.00 | 0.00 | 77 | 1018.0 |
| 20260502034514 | 2 | 317 | 0.0 | 0.0 | 0.00 | 0.00 | 0.00 | 74 | 1018.0 |
| 20260502033029 | 2 | 317 | 0.0 | 0.0 | 0.00 | 0.00 | 0.00 | 73 | 1018.1 |
| 20260502031526 | 2 | 317 | 0.0 | 0.0 | 0.00 | 0.00 | 0.00 | 75 | 1018.1 |
| 20260502030010 | 2 | 317 | 0.0 | 0.0 | 0.00 | 0.00 | 0.00 | 74 | 1018.1 |
| 20260502024604 | 2 | 317 | 0.0 | 0.0 | 0.00 | 0.00 | 0.00 | 70 | 1017.9 |